sensor_id;sensor_type;location;lat;lon;timestamp;P1;durP1;ratioP1;P2;durP2;ratioP2
29934;SDS011;19905;53.370;-6.314;2022-12-18T00:00:42;41.63;;;19.92;;
29934;SDS011;19905;53.370;-6.314;2022-12-18T00:03:11;39.63;;;19.38;;
29934;SDS011;19905;53.370;-6.314;2022-12-18T00:05:47;33.00;;;17.65;;
29934;SDS011;19905;53.370;-6.314;2022-12-18T00:08:16;30.65;;;15.60;;
29934;SDS011;19905;53.370;-6.314;2022-12-18T00:10:47;26.13;;;12.43;;
29934;SDS011;19905;53.370;-6.314;2022-12-18T00:13:17;24.13;;;11.20;;
29934;SDS011;19905;53.370;-6.314;2022-12-18T00:15:46;20.98;;;10.82;;
29934;SDS011;19905;53.370;-6.314;2022-12-18T00:18:15;24.50;;;10.90;;
29934;SDS011;19905;53.370;-6.314;2022-12-18T00:20:47;26.80;;;11.13;;
29934;SDS011;19905;53.370;-6.314;2022-12-18T00:23:16;22.15;;;10.60;;
29934;SDS011;19905;53.370;-6.314;2022-12-18T00:25:45;22.67;;;9.63;;
29934;SDS011;19905;53.370;-6.314;2022-12-18T00:28:13;17.25;;;8.25;;
29934;SDS011;19905;53.370;-6.314;2022-12-18T00:30:43;17.77;;;8.45;;
29934;SDS011;19905;53.370;-6.314;2022-12-18T00:33:12;16.63;;;7.70;;
29934;SDS011;19905;53.370;-6.314;2022-12-18T00:35:43;18.33;;;7.68;;
29934;SDS011;19905;53.370;-6.314;2022-12-18T00:38:14;20.90;;;8.48;;
29934;SDS011;19905;53.370;-6.314;2022-12-18T00:40:44;16.30;;;7.40;;
29934;SDS011;19905;53.370;-6.314;2022-12-18T00:43:13;14.00;;;7.10;;
29934;SDS011;19905;53.370;-6.314;2022-12-18T00:45:40;18.80;;;7.85;;
29934;SDS011;19905;53.370;-6.314;2022-12-18T00:48:11;15.90;;;6.88;;
29934;SDS011;19905;53.370;-6.314;2022-12-18T00:50:43;15.27;;;6.57;;
29934;SDS011;19905;53.370;-6.314;2022-12-18T00:53:12;17.40;;;7.72;;
29934;SDS011;19905;53.370;-6.314;2022-12-18T00:55:43;17.13;;;6.88;;
29934;SDS011;19905;53.370;-6.314;2022-12-18T00:58:15;17.77;;;6.30;;
29934;SDS011;19905;53.370;-6.314;2022-12-18T01:00:44;14.35;;;5.40;;
29934;SDS011;19905;53.370;-6.314;2022-12-18T01:03:13;15.95;;;5.30;;
29934;SDS011;19905;53.370;-6.314;2022-12-18T01:05:43;16.60;;;5.78;;
29934;SDS011;19905;53.370;-6.314;2022-12-18T01:08:12;12.45;;;4.53;;
29934;SDS011;19905;53.370;-6.314;2022-12-18T01:10:42;13.90;;;4.38;;
29934;SDS011;19905;53.370;-6.314;2022-12-18T01:13:12;10.57;;;4.38;;
29934;SDS011;19905;53.370;-6.314;2022-12-18T01:15:47;12.85;;;4.00;;
29934;SDS011;19905;53.370;-6.314;2022-12-18T01:18:18;16.77;;;4.22;;
29934;SDS011;19905;53.370;-6.314;2022-12-18T01:20:47;12.70;;;4.40;;
29934;SDS011;19905;53.370;-6.314;2022-12-18T01:23:17;8.27;;;4.30;;
29934;SDS011;19905;53.370;-6.314;2022-12-18T01:25:47;15.90;;;4.30;;
29934;SDS011;19905;53.370;-6.314;2022-12-18T01:28:15;13.05;;;4.65;;
29934;SDS011;19905;53.370;-6.314;2022-12-18T01:30:44;15.02;;;4.72;;
29934;SDS011;19905;53.370;-6.314;2022-12-18T01:33:13;15.73;;;4.53;;
29934;SDS011;19905;53.370;-6.314;2022-12-18T01:35:42;17.48;;;4.63;;
29934;SDS011;19905;53.370;-6.314;2022-12-18T01:38:11;12.55;;;4.43;;
29934;SDS011;19905;53.370;-6.314;2022-12-18T01:40:40;14.27;;;3.72;;
29934;SDS011;19905;53.370;-6.314;2022-12-18T01:43:10;13.13;;;3.90;;
29934;SDS011;19905;53.370;-6.314;2022-12-18T01:45:39;13.70;;;3.95;;
29934;SDS011;19905;53.370;-6.314;2022-12-18T01:48:10;13.35;;;3.47;;
29934;SDS011;19905;53.370;-6.314;2022-12-18T01:50:39;12.60;;;3.85;;
29934;SDS011;19905;53.370;-6.314;2022-12-18T01:53:10;11.25;;;3.38;;
29934;SDS011;19905;53.370;-6.314;2022-12-18T01:55:42;11.80;;;3.20;;
29934;SDS011;19905;53.370;-6.314;2022-12-18T01:58:17;13.88;;;4.13;;
29934;SDS011;19905;53.370;-6.314;2022-12-18T02:00:47;16.38;;;3.22;;
29934;SDS011;19905;53.370;-6.314;2022-12-18T02:03:18;10.75;;;3.63;;
29934;SDS011;19905;53.370;-6.314;2022-12-18T02:05:49;18.92;;;3.60;;
29934;SDS011;19905;53.370;-6.314;2022-12-18T02:08:26;17.10;;;3.92;;
29934;SDS011;19905;53.370;-6.314;2022-12-18T02:11:05;14.27;;;3.72;;
29934;SDS011;19905;53.370;-6.314;2022-12-18T02:13:41;17.92;;;3.65;;
29934;SDS011;19905;53.370;-6.314;2022-12-18T02:16:17;12.55;;;3.30;;
29934;SDS011;19905;53.370;-6.314;2022-12-18T02:18:53;13.93;;;3.00;;
29934;SDS011;19905;53.370;-6.314;2022-12-18T02:21:28;17.65;;;2.97;;
29934;SDS011;19905;53.370;-6.314;2022-12-18T02:24:13;10.55;;;2.90;;
29934;SDS011;19905;53.370;-6.314;2022-12-18T02:26:56;16.40;;;2.72;;
29934;SDS011;19905;53.370;-6.314;2022-12-18T02:29:29;15.55;;;3.10;;
29934;SDS011;19905;53.370;-6.314;2022-12-18T02:32:03;18.63;;;3.08;;
29934;SDS011;19905;53.370;-6.314;2022-12-18T02:34:38;16.65;;;3.38;;
29934;SDS011;19905;53.370;-6.314;2022-12-18T02:37:09;17.75;;;3.40;;
29934;SDS011;19905;53.370;-6.314;2022-12-18T02:39:43;11.77;;;3.13;;
29934;SDS011;19905;53.370;-6.314;2022-12-18T02:42:16;12.77;;;2.97;;
29934;SDS011;19905;53.370;-6.314;2022-12-18T02:44:47;15.05;;;2.90;;
29934;SDS011;19905;53.370;-6.314;2022-12-18T02:47:18;14.27;;;3.28;;
29934;SDS011;19905;53.370;-6.314;2022-12-18T02:49:52;17.80;;;3.20;;
29934;SDS011;19905;53.370;-6.314;2022-12-18T02:52:28;17.00;;;3.35;;
29934;SDS011;19905;53.370;-6.314;2022-12-18T02:55:07;14.50;;;2.80;;
29934;SDS011;19905;53.370;-6.314;2022-12-18T02:57:50;14.68;;;3.35;;
29934;SDS011;19905;53.370;-6.314;2022-12-18T03:00:23;11.32;;;3.00;;
29934;SDS011;19905;53.370;-6.314;2022-12-18T03:02:57;13.35;;;3.40;;
29934;SDS011;19905;53.370;-6.314;2022-12-18T03:05:35;15.38;;;3.30;;
29934;SDS011;19905;53.370;-6.314;2022-12-18T03:08:10;20.95;;;3.40;;
29934;SDS011;19905;53.370;-6.314;2022-12-18T03:10:48;18.58;;;3.53;;
29934;SDS011;19905;53.370;-6.314;2022-12-18T03:13:27;17.83;;;3.40;;
29934;SDS011;19905;53.370;-6.314;2022-12-18T03:16:02;22.33;;;3.50;;
29934;SDS011;19905;53.370;-6.314;2022-12-18T03:18:36;20.33;;;3.38;;
29934;SDS011;19905;53.370;-6.314;2022-12-18T03:21:13;14.75;;;3.38;;
29934;SDS011;19905;53.370;-6.314;2022-12-18T03:23:47;19.20;;;3.20;;
29934;SDS011;19905;53.370;-6.314;2022-12-18T03:26:21;15.88;;;3.40;;
29934;SDS011;19905;53.370;-6.314;2022-12-18T03:28:55;20.25;;;3.75;;
29934;SDS011;19905;53.370;-6.314;2022-12-18T03:31:28;16.52;;;3.67;;
29934;SDS011;19905;53.370;-6.314;2022-12-18T03:33:59;22.85;;;3.67;;
29934;SDS011;19905;53.370;-6.314;2022-12-18T03:36:32;20.10;;;3.03;;
29934;SDS011;19905;53.370;-6.314;2022-12-18T03:39:01;15.95;;;3.78;;
29934;SDS011;19905;53.370;-6.314;2022-12-18T03:41:33;18.77;;;3.67;;
29934;SDS011;19905;53.370;-6.314;2022-12-18T03:44:11;18.73;;;4.25;;
29934;SDS011;19905;53.370;-6.314;2022-12-18T03:46:46;16.08;;;3.80;;
29934;SDS011;19905;53.370;-6.314;2022-12-18T03:49:23;22.35;;;4.32;;
29934;SDS011;19905;53.370;-6.314;2022-12-18T03:51:59;17.92;;;4.28;;
29934;SDS011;19905;53.370;-6.314;2022-12-18T03:54:33;24.17;;;5.13;;
29934;SDS011;19905;53.370;-6.314;2022-12-18T03:57:06;15.48;;;4.88;;
29934;SDS011;19905;53.370;-6.314;2022-12-18T03:59:40;19.95;;;5.60;;
29934;SDS011;19905;53.370;-6.314;2022-12-18T04:02:11;21.00;;;5.32;;
29934;SDS011;19905;53.370;-6.314;2022-12-18T04:04:41;19.92;;;6.13;;
29934;SDS011;19905;53.370;-6.314;2022-12-18T04:07:15;17.25;;;5.78;;
29934;SDS011;19905;53.370;-6.314;2022-12-18T04:09:45;23.27;;;6.57;;
29934;SDS011;19905;53.370;-6.314;2022-12-18T04:12:17;16.90;;;6.55;;
29934;SDS011;19905;53.370;-6.314;2022-12-18T04:14:47;24.15;;;7.07;;
29934;SDS011;19905;53.370;-6.314;2022-12-18T04:17:19;25.50;;;7.30;;
29934;SDS011;19905;53.370;-6.314;2022-12-18T04:19:48;22.73;;;7.50;;
29934;SDS011;19905;53.370;-6.314;2022-12-18T04:22:19;24.48;;;7.63;;
29934;SDS011;19905;53.370;-6.314;2022-12-18T04:24:48;21.38;;;7.80;;
29934;SDS011;19905;53.370;-6.314;2022-12-18T04:27:18;26.27;;;8.10;;
29934;SDS011;19905;53.370;-6.314;2022-12-18T04:29:48;27.58;;;8.20;;
29934;SDS011;19905;53.370;-6.314;2022-12-18T04:32:17;28.55;;;9.07;;
29934;SDS011;19905;53.370;-6.314;2022-12-18T04:34:46;28.27;;;8.93;;
29934;SDS011;19905;53.370;-6.314;2022-12-18T04:37:15;34.53;;;8.90;;
29934;SDS011;19905;53.370;-6.314;2022-12-18T04:39:44;32.90;;;9.88;;
29934;SDS011;19905;53.370;-6.314;2022-12-18T04:42:14;24.10;;;8.13;;
29934;SDS011;19905;53.370;-6.314;2022-12-18T04:44:43;28.42;;;9.20;;
29934;SDS011;19905;53.370;-6.314;2022-12-18T04:47:13;34.35;;;8.80;;
29934;SDS011;19905;53.370;-6.314;2022-12-18T04:49:42;29.52;;;9.18;;
29934;SDS011;19905;53.370;-6.314;2022-12-18T04:52:10;29.08;;;8.77;;
29934;SDS011;19905;53.370;-6.314;2022-12-18T04:54:40;28.48;;;8.25;;
29934;SDS011;19905;53.370;-6.314;2022-12-18T04:57:08;32.85;;;10.63;;
29934;SDS011;19905;53.370;-6.314;2022-12-18T04:59:38;32.35;;;9.35;;
29934;SDS011;19905;53.370;-6.314;2022-12-18T05:02:07;33.17;;;8.75;;
29934;SDS011;19905;53.370;-6.314;2022-12-18T05:04:37;30.73;;;8.98;;
29934;SDS011;19905;53.370;-6.314;2022-12-18T05:07:07;30.75;;;8.93;;
29934;SDS011;19905;53.370;-6.314;2022-12-18T05:09:36;27.35;;;8.65;;
29934;SDS011;19905;53.370;-6.314;2022-12-18T05:12:05;33.47;;;9.27;;
29934;SDS011;19905;53.370;-6.314;2022-12-18T05:14:34;32.75;;;9.15;;
29934;SDS011;19905;53.370;-6.314;2022-12-18T05:17:03;24.90;;;7.80;;
29934;SDS011;19905;53.370;-6.314;2022-12-18T05:19:32;31.00;;;8.63;;
29934;SDS011;19905;53.370;-6.314;2022-12-18T05:22:03;32.05;;;9.23;;
29934;SDS011;19905;53.370;-6.314;2022-12-18T05:24:37;33.95;;;8.27;;
29934;SDS011;19905;53.370;-6.314;2022-12-18T05:27:06;28.45;;;8.57;;
29934;SDS011;19905;53.370;-6.314;2022-12-18T05:29:35;33.08;;;8.52;;
29934;SDS011;19905;53.370;-6.314;2022-12-18T05:32:04;31.77;;;9.70;;
29934;SDS011;19905;53.370;-6.314;2022-12-18T05:34:33;31.08;;;8.80;;
29934;SDS011;19905;53.370;-6.314;2022-12-18T05:37:01;33.00;;;9.05;;
29934;SDS011;19905;53.370;-6.314;2022-12-18T05:39:32;24.35;;;7.97;;
29934;SDS011;19905;53.370;-6.314;2022-12-18T05:42:01;31.35;;;8.52;;
29934;SDS011;19905;53.370;-6.314;2022-12-18T05:44:31;30.08;;;8.38;;
29934;SDS011;19905;53.370;-6.314;2022-12-18T05:46:59;29.88;;;8.10;;
29934;SDS011;19905;53.370;-6.314;2022-12-18T05:49:29;26.23;;;8.18;;
29934;SDS011;19905;53.370;-6.314;2022-12-18T05:51:58;31.08;;;8.20;;
29934;SDS011;19905;53.370;-6.314;2022-12-18T05:54:28;29.08;;;7.80;;
29934;SDS011;19905;53.370;-6.314;2022-12-18T05:56:59;28.65;;;7.28;;
29934;SDS011;19905;53.370;-6.314;2022-12-18T05:59:29;32.90;;;7.57;;
29934;SDS011;19905;53.370;-6.314;2022-12-18T06:01:57;29.60;;;7.93;;
29934;SDS011;19905;53.370;-6.314;2022-12-18T06:04:26;25.45;;;7.40;;
29934;SDS011;19905;53.370;-6.314;2022-12-18T06:06:57;23.50;;;6.85;;
29934;SDS011;19905;53.370;-6.314;2022-12-18T06:09:26;24.58;;;7.18;;
29934;SDS011;19905;53.370;-6.314;2022-12-18T06:11:55;27.00;;;7.88;;
29934;SDS011;19905;53.370;-6.314;2022-12-18T06:14:25;26.65;;;8.70;;
29934;SDS011;19905;53.370;-6.314;2022-12-18T06:16:53;28.55;;;7.88;;
29934;SDS011;19905;53.370;-6.314;2022-12-18T06:19:22;34.78;;;8.35;;
29934;SDS011;19905;53.370;-6.314;2022-12-18T06:21:51;31.30;;;8.00;;
29934;SDS011;19905;53.370;-6.314;2022-12-18T06:24:25;37.85;;;8.10;;
29934;SDS011;19905;53.370;-6.314;2022-12-18T06:26:55;28.17;;;7.63;;
29934;SDS011;19905;53.370;-6.314;2022-12-18T06:29:25;33.67;;;8.05;;
29934;SDS011;19905;53.370;-6.314;2022-12-18T06:31:54;30.40;;;8.40;;
29934;SDS011;19905;53.370;-6.314;2022-12-18T06:34:26;22.95;;;7.38;;
29934;SDS011;19905;53.370;-6.314;2022-12-18T06:36:54;25.80;;;7.53;;
29934;SDS011;19905;53.370;-6.314;2022-12-18T06:39:23;19.08;;;6.50;;
29934;SDS011;19905;53.370;-6.314;2022-12-18T06:41:55;24.48;;;7.00;;
29934;SDS011;19905;53.370;-6.314;2022-12-18T06:44:27;20.58;;;6.28;;
29934;SDS011;19905;53.370;-6.314;2022-12-18T06:46:57;25.27;;;6.63;;
29934;SDS011;19905;53.370;-6.314;2022-12-18T06:49:26;22.25;;;6.45;;
29934;SDS011;19905;53.370;-6.314;2022-12-18T06:51:56;18.40;;;5.35;;
29934;SDS011;19905;53.370;-6.314;2022-12-18T06:54:24;20.77;;;5.32;;
29934;SDS011;19905;53.370;-6.314;2022-12-18T06:56:56;17.77;;;5.57;;
29934;SDS011;19905;53.370;-6.314;2022-12-18T06:59:28;18.80;;;5.43;;
29934;SDS011;19905;53.370;-6.314;2022-12-18T07:01:57;20.80;;;4.97;;
29934;SDS011;19905;53.370;-6.314;2022-12-18T07:04:27;21.02;;;5.05;;
29934;SDS011;19905;53.370;-6.314;2022-12-18T07:06:58;19.13;;;4.95;;
29934;SDS011;19905;53.370;-6.314;2022-12-18T07:09:27;12.98;;;4.50;;
29934;SDS011;19905;53.370;-6.314;2022-12-18T07:11:56;17.40;;;4.18;;
29934;SDS011;19905;53.370;-6.314;2022-12-18T07:14:25;17.20;;;4.22;;
29934;SDS011;19905;53.370;-6.314;2022-12-18T07:16:56;19.05;;;4.22;;
29934;SDS011;19905;53.370;-6.314;2022-12-18T07:19:26;15.90;;;4.30;;
29934;SDS011;19905;53.370;-6.314;2022-12-18T07:21:56;14.70;;;3.80;;
29934;SDS011;19905;53.370;-6.314;2022-12-18T07:24:25;16.00;;;3.90;;
29934;SDS011;19905;53.370;-6.314;2022-12-18T07:26:56;13.13;;;3.72;;
29934;SDS011;19905;53.370;-6.314;2022-12-18T07:29:31;16.83;;;4.75;;
29934;SDS011;19905;53.370;-6.314;2022-12-18T07:32:03;12.38;;;3.80;;
29934;SDS011;19905;53.370;-6.314;2022-12-18T07:34:32;14.88;;;3.88;;
29934;SDS011;19905;53.370;-6.314;2022-12-18T07:37:02;13.30;;;4.20;;
29934;SDS011;19905;53.370;-6.314;2022-12-18T07:39:31;15.88;;;4.63;;
29934;SDS011;19905;53.370;-6.314;2022-12-18T07:41:59;12.88;;;4.30;;
29934;SDS011;19905;53.370;-6.314;2022-12-18T07:44:46;19.80;;;5.75;;
29934;SDS011;19905;53.370;-6.314;2022-12-18T07:47:18;16.52;;;5.50;;
29934;SDS011;19905;53.370;-6.314;2022-12-18T07:49:47;19.33;;;5.43;;
29934;SDS011;19905;53.370;-6.314;2022-12-18T07:52:16;20.85;;;6.13;;
29934;SDS011;19905;53.370;-6.314;2022-12-18T07:54:53;19.33;;;5.78;;
29934;SDS011;19905;53.370;-6.314;2022-12-18T07:57:23;21.23;;;6.68;;
29934;SDS011;19905;53.370;-6.314;2022-12-18T08:00:12;17.45;;;5.72;;
29934;SDS011;19905;53.370;-6.314;2022-12-18T08:02:43;16.00;;;5.63;;
29934;SDS011;19905;53.370;-6.314;2022-12-18T08:05:14;17.00;;;6.18;;
29934;SDS011;19905;53.370;-6.314;2022-12-18T08:07:43;18.33;;;5.90;;
29934;SDS011;19905;53.370;-6.314;2022-12-18T08:10:12;25.42;;;6.50;;
29934;SDS011;19905;53.370;-6.314;2022-12-18T08:12:40;23.67;;;7.13;;
29934;SDS011;19905;53.370;-6.314;2022-12-18T08:15:15;24.35;;;7.35;;
29934;SDS011;19905;53.370;-6.314;2022-12-18T08:17:46;26.88;;;7.65;;
29934;SDS011;19905;53.370;-6.314;2022-12-18T08:20:15;25.88;;;7.45;;
29934;SDS011;19905;53.370;-6.314;2022-12-18T08:22:45;23.98;;;7.85;;
29934;SDS011;19905;53.370;-6.314;2022-12-18T08:25:13;25.80;;;8.07;;
29934;SDS011;19905;53.370;-6.314;2022-12-18T08:27:43;18.67;;;7.00;;
29934;SDS011;19905;53.370;-6.314;2022-12-18T08:30:12;20.65;;;6.65;;
29934;SDS011;19905;53.370;-6.314;2022-12-18T08:32:41;20.83;;;7.35;;
29934;SDS011;19905;53.370;-6.314;2022-12-18T08:35:11;21.88;;;7.05;;
29934;SDS011;19905;53.370;-6.314;2022-12-18T08:37:44;22.55;;;7.18;;
29934;SDS011;19905;53.370;-6.314;2022-12-18T08:40:13;25.17;;;7.95;;
29934;SDS011;19905;53.370;-6.314;2022-12-18T08:42:41;17.13;;;6.40;;
29934;SDS011;19905;53.370;-6.314;2022-12-18T08:45:27;23.48;;;8.30;;
29934;SDS011;19905;53.370;-6.314;2022-12-18T08:47:56;28.58;;;8.98;;
29934;SDS011;19905;53.370;-6.314;2022-12-18T08:50:28;23.65;;;8.30;;
29934;SDS011;19905;53.370;-6.314;2022-12-18T08:52:56;24.30;;;8.30;;
29934;SDS011;19905;53.370;-6.314;2022-12-18T08:55:25;24.65;;;8.18;;
29934;SDS011;19905;53.370;-6.314;2022-12-18T08:57:53;23.80;;;8.38;;
29934;SDS011;19905;53.370;-6.314;2022-12-18T09:00:26;23.10;;;8.68;;
29934;SDS011;19905;53.370;-6.314;2022-12-18T09:02:55;24.60;;;8.15;;
29934;SDS011;19905;53.370;-6.314;2022-12-18T09:05:28;18.88;;;7.20;;
29934;SDS011;19905;53.370;-6.314;2022-12-18T09:07:56;26.23;;;8.73;;
29934;SDS011;19905;53.370;-6.314;2022-12-18T09:10:25;20.73;;;7.07;;
29934;SDS011;19905;53.370;-6.314;2022-12-18T09:12:57;23.50;;;7.35;;
29934;SDS011;19905;53.370;-6.314;2022-12-18T09:15:25;22.42;;;8.52;;
29934;SDS011;19905;53.370;-6.314;2022-12-18T09:17:55;24.67;;;9.00;;
29934;SDS011;19905;53.370;-6.314;2022-12-18T09:20:24;26.65;;;8.40;;
29934;SDS011;19905;53.370;-6.314;2022-12-18T09:22:56;19.38;;;8.40;;
29934;SDS011;19905;53.370;-6.314;2022-12-18T09:25:25;25.77;;;9.00;;
29934;SDS011;19905;53.370;-6.314;2022-12-18T09:27:59;19.35;;;7.57;;
29934;SDS011;19905;53.370;-6.314;2022-12-18T09:30:29;17.38;;;7.80;;
29934;SDS011;19905;53.370;-6.314;2022-12-18T09:33:00;20.00;;;7.95;;
29934;SDS011;19905;53.370;-6.314;2022-12-18T09:35:29;18.45;;;6.90;;
29934;SDS011;19905;53.370;-6.314;2022-12-18T09:38:00;16.85;;;7.53;;
29934;SDS011;19905;53.370;-6.314;2022-12-18T09:40:31;14.73;;;6.85;;
29934;SDS011;19905;53.370;-6.314;2022-12-18T09:43:04;17.83;;;6.53;;
29934;SDS011;19905;53.370;-6.314;2022-12-18T09:45:44;18.92;;;7.35;;
29934;SDS011;19905;53.370;-6.314;2022-12-18T09:48:19;18.45;;;7.30;;
29934;SDS011;19905;53.370;-6.314;2022-12-18T09:50:51;19.13;;;6.38;;
29934;SDS011;19905;53.370;-6.314;2022-12-18T09:53:30;18.30;;;5.28;;
29934;SDS011;19905;53.370;-6.314;2022-12-18T09:56:03;10.55;;;4.60;;
29934;SDS011;19905;53.370;-6.314;2022-12-18T09:58:34;12.77;;;4.90;;
29934;SDS011;19905;53.370;-6.314;2022-12-18T10:01:11;11.93;;;4.65;;
29934;SDS011;19905;53.370;-6.314;2022-12-18T10:03:43;12.55;;;4.90;;
29934;SDS011;19905;53.370;-6.314;2022-12-18T10:06:13;17.13;;;5.07;;
29934;SDS011;19905;53.370;-6.314;2022-12-18T10:08:49;11.38;;;5.03;;
29934;SDS011;19905;53.370;-6.314;2022-12-18T10:11:27;11.52;;;4.45;;
29934;SDS011;19905;53.370;-6.314;2022-12-18T10:14:09;14.52;;;5.20;;
29934;SDS011;19905;53.370;-6.314;2022-12-18T10:16:47;9.25;;;4.93;;
29934;SDS011;19905;53.370;-6.314;2022-12-18T10:19:28;12.73;;;4.82;;
29934;SDS011;19905;53.370;-6.314;2022-12-18T10:22:11;11.25;;;4.68;;
29934;SDS011;19905;53.370;-6.314;2022-12-18T10:24:53;16.00;;;5.65;;
29934;SDS011;19905;53.370;-6.314;2022-12-18T10:27:26;14.13;;;5.40;;
29934;SDS011;19905;53.370;-6.314;2022-12-18T10:29:56;14.82;;;6.18;;
29934;SDS011;19905;53.370;-6.314;2022-12-18T10:32:27;15.35;;;5.38;;
29934;SDS011;19905;53.370;-6.314;2022-12-18T10:34:58;12.40;;;5.72;;
29934;SDS011;19905;53.370;-6.314;2022-12-18T10:37:28;15.48;;;6.03;;
29934;SDS011;19905;53.370;-6.314;2022-12-18T10:40:09;10.30;;;4.70;;
29934;SDS011;19905;53.370;-6.314;2022-12-18T10:42:49;18.17;;;7.38;;
29934;SDS011;19905;53.370;-6.314;2022-12-18T10:45:32;18.60;;;7.40;;
29934;SDS011;19905;53.370;-6.314;2022-12-18T10:48:01;17.13;;;6.72;;
29934;SDS011;19905;53.370;-6.314;2022-12-18T10:50:32;18.50;;;7.40;;
29934;SDS011;19905;53.370;-6.314;2022-12-18T10:53:23;14.52;;;7.03;;
29934;SDS011;19905;53.370;-6.314;2022-12-18T10:55:57;16.80;;;7.50;;
29934;SDS011;19905;53.370;-6.314;2022-12-18T10:58:27;17.48;;;7.55;;
29934;SDS011;19905;53.370;-6.314;2022-12-18T11:01:05;20.92;;;8.55;;
29934;SDS011;19905;53.370;-6.314;2022-12-18T11:03:37;32.78;;;8.30;;
29934;SDS011;19905;53.370;-6.314;2022-12-18T11:06:10;21.30;;;8.50;;
29934;SDS011;19905;53.370;-6.314;2022-12-18T11:08:42;22.88;;;8.35;;
29934;SDS011;19905;53.370;-6.314;2022-12-18T11:11:19;22.73;;;8.50;;
29934;SDS011;19905;53.370;-6.314;2022-12-18T11:13:54;24.15;;;8.48;;
29934;SDS011;19905;53.370;-6.314;2022-12-18T11:16:32;19.50;;;7.65;;
29934;SDS011;19905;53.370;-6.314;2022-12-18T11:19:09;21.08;;;7.35;;
29934;SDS011;19905;53.370;-6.314;2022-12-18T11:21:48;23.42;;;7.78;;
29934;SDS011;19905;53.370;-6.314;2022-12-18T11:24:29;23.27;;;9.10;;
29934;SDS011;19905;53.370;-6.314;2022-12-18T11:27:02;22.90;;;8.63;;
29934;SDS011;19905;53.370;-6.314;2022-12-18T11:29:33;20.77;;;7.78;;
29934;SDS011;19905;53.370;-6.314;2022-12-18T11:35:08;15.32;;;7.35;;
29934;SDS011;19905;53.370;-6.314;2022-12-18T11:37:46;26.95;;;7.45;;
29934;SDS011;19905;53.370;-6.314;2022-12-18T11:40:25;23.52;;;6.93;;
29934;SDS011;19905;53.370;-6.314;2022-12-18T11:43:09;19.75;;;5.78;;
29934;SDS011;19905;53.370;-6.314;2022-12-18T11:45:43;12.43;;;4.88;;
29934;SDS011;19905;53.370;-6.314;2022-12-18T11:48:21;16.90;;;4.82;;
29934;SDS011;19905;53.370;-6.314;2022-12-18T11:50:53;16.13;;;4.72;;
29934;SDS011;19905;53.370;-6.314;2022-12-18T11:53:24;14.48;;;4.43;;
29934;SDS011;19905;53.370;-6.314;2022-12-18T11:56:00;13.10;;;4.70;;
29934;SDS011;19905;53.370;-6.314;2022-12-18T11:58:42;11.00;;;4.32;;
29934;SDS011;19905;53.370;-6.314;2022-12-18T12:01:21;12.98;;;4.40;;
29934;SDS011;19905;53.370;-6.314;2022-12-18T12:04:24;12.43;;;3.85;;
29934;SDS011;19905;53.370;-6.314;2022-12-18T12:07:12;14.38;;;4.00;;
29934;SDS011;19905;53.370;-6.314;2022-12-18T12:09:52;14.18;;;4.20;;
29934;SDS011;19905;53.370;-6.314;2022-12-18T12:12:32;14.13;;;3.90;;
29934;SDS011;19905;53.370;-6.314;2022-12-18T12:15:26;8.88;;;3.25;;
29934;SDS011;19905;53.370;-6.314;2022-12-18T12:18:08;9.95;;;2.72;;
29934;SDS011;19905;53.370;-6.314;2022-12-18T12:20:53;6.72;;;2.50;;
29934;SDS011;19905;53.370;-6.314;2022-12-18T12:23:33;8.95;;;2.75;;
29934;SDS011;19905;53.370;-6.314;2022-12-18T12:26:15;12.68;;;2.78;;
29934;SDS011;19905;53.370;-6.314;2022-12-18T12:28:54;10.00;;;2.85;;
29934;SDS011;19905;53.370;-6.314;2022-12-18T12:31:36;6.68;;;2.70;;
29934;SDS011;19905;53.370;-6.314;2022-12-18T12:34:18;6.13;;;1.95;;
29934;SDS011;19905;53.370;-6.314;2022-12-18T12:37:03;6.25;;;2.13;;
29934;SDS011;19905;53.370;-6.314;2022-12-18T12:39:43;6.18;;;1.83;;
29934;SDS011;19905;53.370;-6.314;2022-12-18T12:42:18;7.13;;;2.00;;
29934;SDS011;19905;53.370;-6.314;2022-12-18T12:45:13;8.50;;;2.28;;
29934;SDS011;19905;53.370;-6.314;2022-12-18T12:47:48;7.28;;;2.30;;
29934;SDS011;19905;53.370;-6.314;2022-12-18T12:50:19;6.65;;;2.10;;
29934;SDS011;19905;53.370;-6.314;2022-12-18T12:52:50;7.15;;;2.05;;
29934;SDS011;19905;53.370;-6.314;2022-12-18T12:55:21;4.50;;;1.90;;
29934;SDS011;19905;53.370;-6.314;2022-12-18T12:57:55;6.20;;;2.03;;
29934;SDS011;19905;53.370;-6.314;2022-12-18T13:00:35;4.95;;;2.00;;
29934;SDS011;19905;53.370;-6.314;2022-12-18T13:03:12;5.82;;;1.63;;
29934;SDS011;19905;53.370;-6.314;2022-12-18T13:06:00;5.03;;;1.55;;
29934;SDS011;19905;53.370;-6.314;2022-12-18T13:08:52;6.50;;;1.70;;
29934;SDS011;19905;53.370;-6.314;2022-12-18T13:11:28;5.85;;;1.70;;
29934;SDS011;19905;53.370;-6.314;2022-12-18T13:14:29;5.85;;;1.80;;
29934;SDS011;19905;53.370;-6.314;2022-12-18T13:22:50;7.22;;;2.20;;
29934;SDS011;19905;53.370;-6.314;2022-12-18T13:25:30;6.20;;;2.10;;
29934;SDS011;19905;53.370;-6.314;2022-12-18T13:28:08;6.65;;;2.80;;
29934;SDS011;19905;53.370;-6.314;2022-12-18T13:30:43;3.95;;;1.80;;
29934;SDS011;19905;53.370;-6.314;2022-12-18T13:33:35;4.13;;;1.58;;
29934;SDS011;19905;53.370;-6.314;2022-12-18T13:36:32;6.00;;;1.67;;
29934;SDS011;19905;53.370;-6.314;2022-12-18T13:39:09;5.18;;;1.60;;
29934;SDS011;19905;53.370;-6.314;2022-12-18T13:45:42;2.95;;;1.40;;
29934;SDS011;19905;53.370;-6.314;2022-12-18T13:48:19;5.22;;;1.98;;
29934;SDS011;19905;53.370;-6.314;2022-12-18T13:50:56;9.07;;;2.50;;
29934;SDS011;19905;53.370;-6.314;2022-12-18T13:53:32;5.38;;;1.83;;
29934;SDS011;19905;53.370;-6.314;2022-12-18T13:56:05;7.60;;;2.28;;
29934;SDS011;19905;53.370;-6.314;2022-12-18T13:58:34;7.38;;;3.05;;
29934;SDS011;19905;53.370;-6.314;2022-12-18T14:01:02;5.88;;;2.05;;
29934;SDS011;19905;53.370;-6.314;2022-12-18T14:03:31;5.22;;;2.15;;
29934;SDS011;19905;53.370;-6.314;2022-12-18T14:06:02;7.57;;;2.30;;
29934;SDS011;19905;53.370;-6.314;2022-12-18T14:08:37;4.70;;;1.50;;
29934;SDS011;19905;53.370;-6.314;2022-12-18T14:11:18;3.88;;;1.40;;
29934;SDS011;19905;53.370;-6.314;2022-12-18T14:13:52;5.72;;;1.83;;
29934;SDS011;19905;53.370;-6.314;2022-12-18T14:16:20;6.40;;;2.30;;
29934;SDS011;19905;53.370;-6.314;2022-12-18T14:18:52;4.28;;;1.83;;
29934;SDS011;19905;53.370;-6.314;2022-12-18T14:21:44;5.25;;;1.90;;
29934;SDS011;19905;53.370;-6.314;2022-12-18T14:24:19;4.70;;;1.90;;
29934;SDS011;19905;53.370;-6.314;2022-12-18T14:26:49;6.28;;;1.90;;
29934;SDS011;19905;53.370;-6.314;2022-12-18T14:29:21;5.07;;;2.00;;
29934;SDS011;19905;53.370;-6.314;2022-12-18T14:32:04;4.57;;;2.13;;
29934;SDS011;19905;53.370;-6.314;2022-12-18T14:34:43;4.63;;;1.60;;
29934;SDS011;19905;53.370;-6.314;2022-12-18T14:37:13;4.07;;;1.73;;
29934;SDS011;19905;53.370;-6.314;2022-12-18T14:39:57;6.90;;;2.10;;
29934;SDS011;19905;53.370;-6.314;2022-12-18T14:42:36;7.55;;;2.20;;
29934;SDS011;19905;53.370;-6.314;2022-12-18T14:48:09;10.15;;;4.75;;
29934;SDS011;19905;53.370;-6.314;2022-12-18T14:50:58;9.95;;;3.35;;
29934;SDS011;19905;53.370;-6.314;2022-12-18T14:53:32;8.35;;;3.17;;
29934;SDS011;19905;53.370;-6.314;2022-12-18T14:56:12;7.40;;;2.17;;
29934;SDS011;19905;53.370;-6.314;2022-12-18T14:58:46;8.73;;;2.35;;
29934;SDS011;19905;53.370;-6.314;2022-12-18T15:01:21;6.13;;;1.63;;
29934;SDS011;19905;53.370;-6.314;2022-12-18T15:03:53;6.78;;;2.13;;
29934;SDS011;19905;53.370;-6.314;2022-12-18T15:06:28;6.35;;;2.30;;
29934;SDS011;19905;53.370;-6.314;2022-12-18T15:08:59;6.25;;;1.92;;
29934;SDS011;19905;53.370;-6.314;2022-12-18T15:11:34;8.13;;;2.75;;
29934;SDS011;19905;53.370;-6.314;2022-12-18T15:14:35;7.65;;;2.28;;